sensor_id;sensor_type;location;lat;lon;timestamp;P1;durP1;ratioP1;P2;durP2;ratioP2
25637;SDS011;13496;51.040;13.680;2024-02-23T00:00:26;1.10;;;0.80;;
25637;SDS011;13496;51.040;13.680;2024-02-23T00:05:27;0.90;;;0.63;;
25637;SDS011;13496;51.040;13.680;2024-02-23T00:10:29;0.60;;;0.52;;
25637;SDS011;13496;51.040;13.680;2024-02-23T00:15:31;3.40;;;0.70;;
25637;SDS011;13496;51.040;13.680;2024-02-23T00:20:33;0.50;;;0.50;;
25637;SDS011;13496;51.040;13.680;2024-02-23T00:25:35;1.20;;;0.47;;
25637;SDS011;13496;51.040;13.680;2024-02-23T00:30:37;0.50;;;0.50;;
25637;SDS011;13496;51.040;13.680;2024-02-23T00:35:38;0.68;;;0.50;;
25637;SDS011;13496;51.040;13.680;2024-02-23T00:40:40;0.80;;;0.70;;
25637;SDS011;13496;51.040;13.680;2024-02-23T00:45:42;0.60;;;0.60;;
25637;SDS011;13496;51.040;13.680;2024-02-23T00:50:44;1.05;;;0.43;;
25637;SDS011;13496;51.040;13.680;2024-02-23T00:55:45;1.03;;;0.60;;
25637;SDS011;13496;51.040;13.680;2024-02-23T01:00:47;0.60;;;0.60;;
25637;SDS011;13496;51.040;13.680;2024-02-23T01:05:49;2.53;;;0.52;;
25637;SDS011;13496;51.040;13.680;2024-02-23T01:10:51;3.13;;;0.70;;
25637;SDS011;13496;51.040;13.680;2024-02-23T01:15:53;3.20;;;0.80;;
25637;SDS011;13496;51.040;13.680;2024-02-23T01:20:56;2.35;;;0.65;;
25637;SDS011;13496;51.040;13.680;2024-02-23T01:25:59;1.48;;;0.63;;
25637;SDS011;13496;51.040;13.680;2024-02-23T01:31:01;1.17;;;0.60;;
25637;SDS011;13496;51.040;13.680;2024-02-23T01:36:04;1.45;;;0.70;;
25637;SDS011;13496;51.040;13.680;2024-02-23T01:41:08;1.30;;;0.60;;
25637;SDS011;13496;51.040;13.680;2024-02-23T01:46:10;0.60;;;0.50;;
25637;SDS011;13496;51.040;13.680;2024-02-23T01:51:11;1.25;;;0.50;;
25637;SDS011;13496;51.040;13.680;2024-02-23T01:56:14;1.35;;;0.60;;
25637;SDS011;13496;51.040;13.680;2024-02-23T02:01:21;0.63;;;0.60;;
25637;SDS011;13496;51.040;13.680;2024-02-23T02:06:23;0.60;;;0.60;;
25637;SDS011;13496;51.040;13.680;2024-02-23T02:11:26;2.23;;;0.90;;
25637;SDS011;13496;51.040;13.680;2024-02-23T02:16:27;0.50;;;0.50;;
25637;SDS011;13496;51.040;13.680;2024-02-23T02:21:30;1.83;;;0.80;;
25637;SDS011;13496;51.040;13.680;2024-02-23T02:26:34;1.33;;;0.60;;
25637;SDS011;13496;51.040;13.680;2024-02-23T02:31:36;0.50;;;0.50;;
25637;SDS011;13496;51.040;13.680;2024-02-23T02:36:38;0.50;;;0.50;;
25637;SDS011;13496;51.040;13.680;2024-02-23T02:41:40;0.80;;;0.80;;
25637;SDS011;13496;51.040;13.680;2024-02-23T02:46:42;0.50;;;0.50;;
25637;SDS011;13496;51.040;13.680;2024-02-23T02:51:44;0.63;;;0.50;;
25637;SDS011;13496;51.040;13.680;2024-02-23T02:56:47;1.13;;;0.52;;
25637;SDS011;13496;51.040;13.680;2024-02-23T03:01:49;0.47;;;0.35;;
25637;SDS011;13496;51.040;13.680;2024-02-23T03:06:51;0.87;;;0.50;;
25637;SDS011;13496;51.040;13.680;2024-02-23T03:11:53;0.47;;;0.47;;
25637;SDS011;13496;51.040;13.680;2024-02-23T03:16:54;0.60;;;0.60;;
25637;SDS011;13496;51.040;13.680;2024-02-23T03:21:56;0.52;;;0.52;;
25637;SDS011;13496;51.040;13.680;2024-02-23T03:26:58;0.82;;;0.50;;
25637;SDS011;13496;51.040;13.680;2024-02-23T03:32:00;0.60;;;0.60;;
25637;SDS011;13496;51.040;13.680;2024-02-23T03:37:02;0.50;;;0.50;;
25637;SDS011;13496;51.040;13.680;2024-02-23T03:42:04;2.40;;;0.60;;
25637;SDS011;13496;51.040;13.680;2024-02-23T03:47:06;0.45;;;0.45;;
25637;SDS011;13496;51.040;13.680;2024-02-23T03:52:08;1.00;;;0.30;;
25637;SDS011;13496;51.040;13.680;2024-02-23T03:57:10;5.13;;;0.90;;
25637;SDS011;13496;51.040;13.680;2024-02-23T04:02:12;2.05;;;0.80;;
25637;SDS011;13496;51.040;13.680;2024-02-23T04:07:14;2.33;;;0.50;;
25637;SDS011;13496;51.040;13.680;2024-02-23T04:12:15;1.50;;;0.60;;
25637;SDS011;13496;51.040;13.680;2024-02-23T04:17:17;1.45;;;0.70;;
25637;SDS011;13496;51.040;13.680;2024-02-23T04:22:20;0.40;;;0.40;;
25637;SDS011;13496;51.040;13.680;2024-02-23T04:27:22;0.67;;;0.50;;
25637;SDS011;13496;51.040;13.680;2024-02-23T04:32:23;0.50;;;0.50;;
25637;SDS011;13496;51.040;13.680;2024-02-23T04:37:25;1.50;;;0.65;;
25637;SDS011;13496;51.040;13.680;2024-02-23T04:42:27;1.13;;;0.40;;
25637;SDS011;13496;51.040;13.680;2024-02-23T04:47:29;1.33;;;0.60;;
25637;SDS011;13496;51.040;13.680;2024-02-23T04:52:31;0.60;;;0.53;;
25637;SDS011;13496;51.040;13.680;2024-02-23T04:57:32;0.50;;;0.50;;
25637;SDS011;13496;51.040;13.680;2024-02-23T05:02:34;0.60;;;0.60;;
25637;SDS011;13496;51.040;13.680;2024-02-23T05:07:36;0.93;;;0.50;;
25637;SDS011;13496;51.040;13.680;2024-02-23T05:12:38;0.30;;;0.30;;
25637;SDS011;13496;51.040;13.680;2024-02-23T05:17:40;0.40;;;0.40;;
25637;SDS011;13496;51.040;13.680;2024-02-23T05:22:42;1.23;;;0.60;;
25637;SDS011;13496;51.040;13.680;2024-02-23T05:27:44;0.82;;;0.50;;
25637;SDS011;13496;51.040;13.680;2024-02-23T05:32:45;1.38;;;0.60;;
25637;SDS011;13496;51.040;13.680;2024-02-23T05:37:48;0.65;;;0.63;;
25637;SDS011;13496;51.040;13.680;2024-02-23T05:42:51;1.83;;;1.00;;
25637;SDS011;13496;51.040;13.680;2024-02-23T05:47:53;1.70;;;0.85;;
25637;SDS011;13496;51.040;13.680;2024-02-23T05:52:55;2.28;;;1.00;;
25637;SDS011;13496;51.040;13.680;2024-02-23T05:57:56;1.80;;;1.07;;
25637;SDS011;13496;51.040;13.680;2024-02-23T06:02:58;1.42;;;1.10;;
25637;SDS011;13496;51.040;13.680;2024-02-23T06:08:00;3.10;;;1.30;;
25637;SDS011;13496;51.040;13.680;2024-02-23T06:13:02;2.72;;;1.30;;
25637;SDS011;13496;51.040;13.680;2024-02-23T06:18:05;2.17;;;1.33;;
25637;SDS011;13496;51.040;13.680;2024-02-23T06:23:07;2.30;;;1.63;;
25637;SDS011;13496;51.040;13.680;2024-02-23T06:28:08;3.20;;;1.52;;
25637;SDS011;13496;51.040;13.680;2024-02-23T06:33:10;3.40;;;1.50;;
25637;SDS011;13496;51.040;13.680;2024-02-23T06:38:12;2.33;;;1.30;;
25637;SDS011;13496;51.040;13.680;2024-02-23T06:43:14;2.00;;;1.53;;
25637;SDS011;13496;51.040;13.680;2024-02-23T06:48:15;4.22;;;1.65;;
25637;SDS011;13496;51.040;13.680;2024-02-23T06:53:17;3.63;;;1.67;;
25637;SDS011;13496;51.040;13.680;2024-02-23T06:58:19;3.37;;;1.53;;
25637;SDS011;13496;51.040;13.680;2024-02-23T07:03:21;1.77;;;1.20;;
25637;SDS011;13496;51.040;13.680;2024-02-23T07:08:23;1.92;;;1.33;;
25637;SDS011;13496;51.040;13.680;2024-02-23T07:13:25;1.85;;;1.40;;
25637;SDS011;13496;51.040;13.680;2024-02-23T07:18:26;1.73;;;1.38;;
25637;SDS011;13496;51.040;13.680;2024-02-23T07:23:28;1.80;;;1.60;;
25637;SDS011;13496;51.040;13.680;2024-02-23T07:28:30;2.38;;;1.80;;
25637;SDS011;13496;51.040;13.680;2024-02-23T07:33:32;3.55;;;1.55;;
25637;SDS011;13496;51.040;13.680;2024-02-23T07:38:34;1.97;;;1.43;;
25637;SDS011;13496;51.040;13.680;2024-02-23T07:43:36;1.42;;;1.13;;
25637;SDS011;13496;51.040;13.680;2024-02-23T07:48:38;2.10;;;1.40;;
25637;SDS011;13496;51.040;13.680;2024-02-23T07:53:39;2.13;;;1.70;;
25637;SDS011;13496;51.040;13.680;2024-02-23T07:58:41;1.73;;;1.30;;
25637;SDS011;13496;51.040;13.680;2024-02-23T08:03:43;3.00;;;1.80;;
25637;SDS011;13496;51.040;13.680;2024-02-23T08:08:45;1.60;;;1.33;;
25637;SDS011;13496;51.040;13.680;2024-02-23T08:13:48;1.98;;;1.02;;
25637;SDS011;13496;51.040;13.680;2024-02-23T08:18:49;1.50;;;1.20;;
25637;SDS011;13496;51.040;13.680;2024-02-23T08:23:51;0.98;;;0.98;;
25637;SDS011;13496;51.040;13.680;2024-02-23T08:28:53;1.70;;;1.30;;
25637;SDS011;13496;51.040;13.680;2024-02-23T08:33:55;3.00;;;1.40;;
25637;SDS011;13496;51.040;13.680;2024-02-23T08:38:57;1.70;;;1.30;;
25637;SDS011;13496;51.040;13.680;2024-02-23T08:43:59;2.40;;;1.20;;
25637;SDS011;13496;51.040;13.680;2024-02-23T08:49:00;2.28;;;1.25;;
25637;SDS011;13496;51.040;13.680;2024-02-23T08:54:02;2.97;;;1.63;;
25637;SDS011;13496;51.040;13.680;2024-02-23T08:59:06;1.55;;;1.20;;
25637;SDS011;13496;51.040;13.680;2024-02-23T09:04:08;1.45;;;1.17;;
25637;SDS011;13496;51.040;13.680;2024-02-23T09:09:10;1.70;;;1.17;;
25637;SDS011;13496;51.040;13.680;2024-02-23T09:14:12;1.43;;;1.03;;
25637;SDS011;13496;51.040;13.680;2024-02-23T09:19:13;1.60;;;1.10;;
25637;SDS011;13496;51.040;13.680;2024-02-23T09:24:15;1.88;;;1.10;;
25637;SDS011;13496;51.040;13.680;2024-02-23T09:29:17;1.02;;;0.93;;
25637;SDS011;13496;51.040;13.680;2024-02-23T09:34:19;1.10;;;1.00;;
25637;SDS011;13496;51.040;13.680;2024-02-23T09:39:20;2.55;;;1.00;;
25637;SDS011;13496;51.040;13.680;2024-02-23T09:44:22;1.42;;;1.13;;
25637;SDS011;13496;51.040;13.680;2024-02-23T09:49:24;1.10;;;1.00;;
25637;SDS011;13496;51.040;13.680;2024-02-23T09:54:26;1.67;;;0.82;;
25637;SDS011;13496;51.040;13.680;2024-02-23T09:59:28;1.75;;;1.10;;
25637;SDS011;13496;51.040;13.680;2024-02-23T10:04:30;1.42;;;1.10;;
25637;SDS011;13496;51.040;13.680;2024-02-23T10:09:32;1.80;;;1.20;;
25637;SDS011;13496;51.040;13.680;2024-02-23T10:14:34;1.15;;;1.00;;
25637;SDS011;13496;51.040;13.680;2024-02-23T10:19:36;1.02;;;0.90;;
25637;SDS011;13496;51.040;13.680;2024-02-23T10:24:37;1.50;;;0.98;;
25637;SDS011;13496;51.040;13.680;2024-02-23T10:29:39;1.60;;;1.00;;
25637;SDS011;13496;51.040;13.680;2024-02-23T10:34:42;0.90;;;0.90;;
25637;SDS011;13496;51.040;13.680;2024-02-23T10:39:45;1.00;;;0.90;;
25637;SDS011;13496;51.040;13.680;2024-02-23T10:44:47;1.00;;;0.88;;
25637;SDS011;13496;51.040;13.680;2024-02-23T10:49:50;1.13;;;0.75;;
25637;SDS011;13496;51.040;13.680;2024-02-23T10:54:53;1.43;;;0.93;;
25637;SDS011;13496;51.040;13.680;2024-02-23T10:59:57;0.80;;;0.80;;
25637;SDS011;13496;51.040;13.680;2024-02-23T11:04:59;1.00;;;0.90;;
25637;SDS011;13496;51.040;13.680;2024-02-23T11:10:01;0.95;;;0.90;;
25637;SDS011;13496;51.040;13.680;2024-02-23T11:15:05;1.42;;;0.90;;
25637;SDS011;13496;51.040;13.680;2024-02-23T11:20:08;0.68;;;0.68;;
25637;SDS011;13496;51.040;13.680;2024-02-23T11:25:16;1.25;;;1.10;;
25637;SDS011;13496;51.040;13.680;2024-02-23T11:30:19;1.00;;;0.70;;
25637;SDS011;13496;51.040;13.680;2024-02-23T11:35:20;1.00;;;1.00;;
25637;SDS011;13496;51.040;13.680;2024-02-23T11:40:27;1.02;;;0.80;;
25637;SDS011;13496;51.040;13.680;2024-02-23T11:45:30;0.60;;;0.60;;
25637;SDS011;13496;51.040;13.680;2024-02-23T11:50:32;0.80;;;0.80;;
25637;SDS011;13496;51.040;13.680;2024-02-23T11:55:34;0.75;;;0.75;;
25637;SDS011;13496;51.040;13.680;2024-02-23T12:00:36;0.70;;;0.70;;
25637;SDS011;13496;51.040;13.680;2024-02-23T12:05:38;0.68;;;0.68;;
25637;SDS011;13496;51.040;13.680;2024-02-23T12:10:40;1.83;;;1.13;;
25637;SDS011;13496;51.040;13.680;2024-02-23T12:15:42;0.90;;;0.90;;
25637;SDS011;13496;51.040;13.680;2024-02-23T12:20:46;1.23;;;0.90;;
25637;SDS011;13496;51.040;13.680;2024-02-23T12:25:58;0.70;;;0.70;;
25637;SDS011;13496;51.040;13.680;2024-02-23T12:31:04;0.70;;;0.70;;
25637;SDS011;13496;51.040;13.680;2024-02-23T12:36:07;3.45;;;0.90;;
25637;SDS011;13496;51.040;13.680;2024-02-23T12:41:09;0.70;;;0.70;;
25637;SDS011;13496;51.040;13.680;2024-02-23T12:46:12;0.75;;;0.70;;
25637;SDS011;13496;51.040;13.680;2024-02-23T12:51:15;0.70;;;0.70;;
25637;SDS011;13496;51.040;13.680;2024-02-23T12:56:17;1.25;;;0.80;;
25637;SDS011;13496;51.040;13.680;2024-02-23T13:01:19;0.80;;;0.63;;
25637;SDS011;13496;51.040;13.680;2024-02-23T13:06:21;0.80;;;0.80;;
25637;SDS011;13496;51.040;13.680;2024-02-23T13:11:23;0.50;;;0.50;;
25637;SDS011;13496;51.040;13.680;2024-02-23T13:16:25;0.63;;;0.60;;
25637;SDS011;13496;51.040;13.680;2024-02-23T13:21:27;0.68;;;0.68;;
25637;SDS011;13496;51.040;13.680;2024-02-23T13:26:29;0.68;;;0.68;;
25637;SDS011;13496;51.040;13.680;2024-02-23T13:31:31;0.77;;;0.70;;
25637;SDS011;13496;51.040;13.680;2024-02-23T13:36:33;0.60;;;0.60;;
25637;SDS011;13496;51.040;13.680;2024-02-23T13:41:35;0.68;;;0.68;;
25637;SDS011;13496;51.040;13.680;2024-02-23T13:46:40;0.60;;;0.60;;
25637;SDS011;13496;51.040;13.680;2024-02-23T13:51:41;0.70;;;0.70;;
25637;SDS011;13496;51.040;13.680;2024-02-23T13:56:43;0.75;;;0.75;;
25637;SDS011;13496;51.040;13.680;2024-02-23T14:01:45;0.77;;;0.77;;
25637;SDS011;13496;51.040;13.680;2024-02-23T14:06:47;0.63;;;0.63;;
25637;SDS011;13496;51.040;13.680;2024-02-23T14:11:49;0.50;;;0.50;;
25637;SDS011;13496;51.040;13.680;2024-02-23T14:16:51;0.70;;;0.70;;
25637;SDS011;13496;51.040;13.680;2024-02-23T14:21:52;0.95;;;0.70;;
25637;SDS011;13496;51.040;13.680;2024-02-23T14:26:54;0.63;;;0.63;;
25637;SDS011;13496;51.040;13.680;2024-02-23T14:31:56;0.88;;;0.82;;
25637;SDS011;13496;51.040;13.680;2024-02-23T14:36:58;0.50;;;0.50;;
25637;SDS011;13496;51.040;13.680;2024-02-23T14:42:00;0.70;;;0.70;;
25637;SDS011;13496;51.040;13.680;2024-02-23T14:47:03;1.05;;;0.60;;
25637;SDS011;13496;51.040;13.680;2024-02-23T14:52:06;0.80;;;0.80;;
25637;SDS011;13496;51.040;13.680;2024-02-23T14:57:08;0.70;;;0.70;;
25637;SDS011;13496;51.040;13.680;2024-02-23T15:02:10;0.95;;;0.60;;
25637;SDS011;13496;51.040;13.680;2024-02-23T15:07:22;0.70;;;0.60;;
25637;SDS011;13496;51.040;13.680;2024-02-23T15:12:24;0.63;;;0.63;;
25637;SDS011;13496;51.040;13.680;2024-02-23T15:17:29;0.80;;;0.80;;
25637;SDS011;13496;51.040;13.680;2024-02-23T15:22:31;0.80;;;0.75;;
25637;SDS011;13496;51.040;13.680;2024-02-23T15:27:33;0.60;;;0.60;;
25637;SDS011;13496;51.040;13.680;2024-02-23T15:32:35;0.55;;;0.55;;
25637;SDS011;13496;51.040;13.680;2024-02-23T15:37:38;0.55;;;0.55;;
25637;SDS011;13496;51.040;13.680;2024-02-23T15:42:40;0.50;;;0.50;;
25637;SDS011;13496;51.040;13.680;2024-02-23T15:47:42;1.03;;;0.70;;
25637;SDS011;13496;51.040;13.680;2024-02-23T15:52:44;0.70;;;0.70;;
25637;SDS011;13496;51.040;13.680;2024-02-23T15:57:46;0.60;;;0.60;;
25637;SDS011;13496;51.040;13.680;2024-02-23T16:02:48;0.70;;;0.70;;
25637;SDS011;13496;51.040;13.680;2024-02-23T16:07:50;0.73;;;0.73;;
25637;SDS011;13496;51.040;13.680;2024-02-23T16:12:52;0.60;;;0.60;;
25637;SDS011;13496;51.040;13.680;2024-02-23T16:17:54;0.73;;;0.60;;
25637;SDS011;13496;51.040;13.680;2024-02-23T16:22:57;0.75;;;0.70;;
25637;SDS011;13496;51.040;13.680;2024-02-23T16:27:59;0.55;;;0.55;;
25637;SDS011;13496;51.040;13.680;2024-02-23T16:33:00;0.57;;;0.57;;
25637;SDS011;13496;51.040;13.680;2024-02-23T16:38:02;0.60;;;0.60;;
25637;SDS011;13496;51.040;13.680;2024-02-23T16:43:04;0.75;;;0.70;;
25637;SDS011;13496;51.040;13.680;2024-02-23T16:48:06;0.70;;;0.70;;
25637;SDS011;13496;51.040;13.680;2024-02-23T16:53:09;0.60;;;0.60;;
25637;SDS011;13496;51.040;13.680;2024-02-23T16:58:11;0.80;;;0.80;;
25637;SDS011;13496;51.040;13.680;2024-02-23T17:03:13;0.60;;;0.60;;
25637;SDS011;13496;51.040;13.680;2024-02-23T17:08:17;0.70;;;0.70;;
25637;SDS011;13496;51.040;13.680;2024-02-23T17:13:19;0.70;;;0.70;;
25637;SDS011;13496;51.040;13.680;2024-02-23T17:18:21;1.67;;;0.80;;
25637;SDS011;13496;51.040;13.680;2024-02-23T17:23:25;0.70;;;0.70;;
25637;SDS011;13496;51.040;13.680;2024-02-23T17:28:28;0.93;;;0.80;;
25637;SDS011;13496;51.040;13.680;2024-02-23T17:33:31;0.80;;;0.80;;
25637;SDS011;13496;51.040;13.680;2024-02-23T17:38:33;0.80;;;0.80;;
25637;SDS011;13496;51.040;13.680;2024-02-23T17:43:35;0.68;;;0.68;;
25637;SDS011;13496;51.040;13.680;2024-02-23T17:48:37;0.90;;;0.73;;
25637;SDS011;13496;51.040;13.680;2024-02-23T17:53:40;0.77;;;0.77;;
25637;SDS011;13496;51.040;13.680;2024-02-23T17:58:42;1.20;;;0.90;;
25637;SDS011;13496;51.040;13.680;2024-02-23T18:03:43;0.77;;;0.77;;
25637;SDS011;13496;51.040;13.680;2024-02-23T18:08:45;0.90;;;0.90;;
25637;SDS011;13496;51.040;13.680;2024-02-23T18:13:47;0.70;;;0.70;;
25637;SDS011;13496;51.040;13.680;2024-02-23T18:18:49;1.10;;;0.90;;
25637;SDS011;13496;51.040;13.680;2024-02-23T18:23:52;1.25;;;1.15;;
25637;SDS011;13496;51.040;13.680;2024-02-23T18:28:54;0.82;;;0.80;;
25637;SDS011;13496;51.040;13.680;2024-02-23T18:33:55;1.15;;;1.02;;
25637;SDS011;13496;51.040;13.680;2024-02-23T18:38:57;1.23;;;1.10;;
25637;SDS011;13496;51.040;13.680;2024-02-23T18:43:59;0.80;;;0.80;;
25637;SDS011;13496;51.040;13.680;2024-02-23T18:49:01;0.98;;;0.90;;
25637;SDS011;13496;51.040;13.680;2024-02-23T18:54:03;1.20;;;1.10;;
25637;SDS011;13496;51.040;13.680;2024-02-23T18:59:05;1.52;;;1.13;;
25637;SDS011;13496;51.040;13.680;2024-02-23T19:04:07;1.23;;;1.13;;
25637;SDS011;13496;51.040;13.680;2024-02-23T19:09:08;1.05;;;1.05;;
25637;SDS011;13496;51.040;13.680;2024-02-23T19:14:10;1.52;;;1.25;;
25637;SDS011;13496;51.040;13.680;2024-02-23T19:19:12;1.40;;;1.30;;
25637;SDS011;13496;51.040;13.680;2024-02-23T19:24:14;1.25;;;1.15;;
25637;SDS011;13496;51.040;13.680;2024-02-23T19:29:16;1.30;;;1.20;;
25637;SDS011;13496;51.040;13.680;2024-02-23T19:34:18;1.35;;;1.25;;
25637;SDS011;13496;51.040;13.680;2024-02-23T19:39:19;1.92;;;1.40;;
25637;SDS011;13496;51.040;13.680;2024-02-23T19:44:22;1.48;;;1.35;;
25637;SDS011;13496;51.040;13.680;2024-02-23T19:49:24;1.85;;;1.60;;
25637;SDS011;13496;51.040;13.680;2024-02-23T19:54:29;1.40;;;1.30;;
25637;SDS011;13496;51.040;13.680;2024-02-23T19:59:30;1.60;;;1.50;;
25637;SDS011;13496;51.040;13.680;2024-02-23T20:04:41;1.50;;;1.40;;
25637;SDS011;13496;51.040;13.680;2024-02-23T20:09:44;1.65;;;1.50;;
25637;SDS011;13496;51.040;13.680;2024-02-23T20:14:46;1.75;;;1.65;;
25637;SDS011;13496;51.040;13.680;2024-02-23T20:19:48;1.45;;;1.35;;
25637;SDS011;13496;51.040;13.680;2024-02-23T20:24:50;1.60;;;1.50;;
25637;SDS011;13496;51.040;13.680;2024-02-23T20:29:52;1.60;;;1.50;;
25637;SDS011;13496;51.040;13.680;2024-02-23T20:34:54;4.53;;;1.70;;
25637;SDS011;13496;51.040;13.680;2024-02-23T20:39:56;2.10;;;1.60;;
25637;SDS011;13496;51.040;13.680;2024-02-23T20:44:57;1.85;;;1.70;;
25637;SDS011;13496;51.040;13.680;2024-02-23T20:49:59;2.55;;;1.77;;
25637;SDS011;13496;51.040;13.680;2024-02-23T20:55:02;3.05;;;1.88;;
25637;SDS011;13496;51.040;13.680;2024-02-23T21:00:05;4.55;;;1.70;;
25637;SDS011;13496;51.040;13.680;2024-02-23T21:05:07;1.98;;;1.77;;
25637;SDS011;13496;51.040;13.680;2024-02-23T21:10:09;2.70;;;2.10;;
25637;SDS011;13496;51.040;13.680;2024-02-23T21:15:11;1.88;;;1.73;;
25637;SDS011;13496;51.040;13.680;2024-02-23T21:20:13;2.17;;;1.88;;
25637;SDS011;13496;51.040;13.680;2024-02-23T21:25:15;2.22;;;1.70;;
25637;SDS011;13496;51.040;13.680;2024-02-23T21:30:18;3.35;;;1.90;;
25637;SDS011;13496;51.040;13.680;2024-02-23T21:35:19;1.70;;;1.60;;
25637;SDS011;13496;51.040;13.680;2024-02-23T21:40:24;1.88;;;1.63;;
25637;SDS011;13496;51.040;13.680;2024-02-23T21:45:26;1.92;;;1.70;;
25637;SDS011;13496;51.040;13.680;2024-02-23T21:50:27;1.80;;;1.70;;
25637;SDS011;13496;51.040;13.680;2024-02-23T21:55:29;1.95;;;1.85;;
25637;SDS011;13496;51.040;13.680;2024-02-23T22:00:31;1.80;;;1.70;;
25637;SDS011;13496;51.040;13.680;2024-02-23T22:05:33;2.57;;;1.80;;
25637;SDS011;13496;51.040;13.680;2024-02-23T22:10:35;2.08;;;1.88;;
25637;SDS011;13496;51.040;13.680;2024-02-23T22:15:37;1.67;;;1.58;;
25637;SDS011;13496;51.040;13.680;2024-02-23T22:20:38;1.70;;;1.60;;
25637;SDS011;13496;51.040;13.680;2024-02-23T22:25:40;1.90;;;1.80;;
25637;SDS011;13496;51.040;13.680;2024-02-23T22:30:42;1.67;;;1.58;;
25637;SDS011;13496;51.040;13.680;2024-02-23T22:35:44;1.73;;;1.63;;
25637;SDS011;13496;51.040;13.680;2024-02-23T22:40:46;1.75;;;1.65;;
25637;SDS011;13496;51.040;13.680;2024-02-23T22:45:47;1.83;;;1.60;;
25637;SDS011;13496;51.040;13.680;2024-02-23T22:50:49;2.15;;;2.00;;
25637;SDS011;13496;51.040;13.680;2024-02-23T22:55:51;2.13;;;1.92;;
25637;SDS011;13496;51.040;13.680;2024-02-23T23:00:53;1.98;;;1.88;;
25637;SDS011;13496;51.040;13.680;2024-02-23T23:05:55;2.25;;;1.90;;
25637;SDS011;13496;51.040;13.680;2024-02-23T23:10:57;1.92;;;1.83;;
25637;SDS011;13496;51.040;13.680;2024-02-23T23:15:59;1.98;;;1.88;;
25637;SDS011;13496;51.040;13.680;2024-02-23T23:21:01;2.20;;;2.00;;
25637;SDS011;13496;51.040;13.680;2024-02-23T23:26:04;2.00;;;1.88;;
25637;SDS011;13496;51.040;13.680;2024-02-23T23:31:05;2.00;;;1.90;;
25637;SDS011;13496;51.040;13.680;2024-02-23T23:36:07;1.65;;;1.55;;
25637;SDS011;13496;51.040;13.680;2024-02-23T23:41:11;2.17;;;2.00;;
25637;SDS011;13496;51.040;13.680;2024-02-23T23:46:13;2.25;;;2.05;;
25637;SDS011;13496;51.040;13.680;2024-02-23T23:51:15;2.22;;;2.03;;
25637;SDS011;13496;51.040;13.680;2024-02-23T23:56:17;2.30;;;2.10;;
